ASA7004 PAWG-PAPG
Flight info
| Callsign | ASA7004 |
|---|---|
| Flight time | 0h 7m |
| Altitude | 6000 |
| Route | KAJBU5 KAJBU |
| Aircraft | B737/M-SDE2E3FGHIRWXY/LB1 |
Departure
| Time | 2026-05-03 20:25 |
|---|---|
| Airport | Wrangell Airport (PAWG) |
Arrival
| Time | 2026-05-03 20:33 |
|---|---|
| Airport | Petersburg James A Johnson Airport (PAPG) |
| Time | Latitude | Longitude | Altitude | Speed | Heading |
|---|---|---|---|---|---|
| 2026-05-03 20:18 | 56.48487 | -132.37626 | 35 ft | 0 kts | 203° |
| 2026-05-03 20:23 | 56.48484 | -132.37628 | 35 ft | 3 kts | 204° |
| 2026-05-03 20:23 | 56.48481 | -132.37609 | 35 ft | 5 kts | 62° |
| 2026-05-03 20:23 | 56.48499 | -132.37514 | 35 ft | 11 kts | 77° |
| 2026-05-03 20:23 | 56.48501 | -132.37246 | 34 ft | 32 kts | 105° |
| 2026-05-03 20:24 | 56.48369 | -132.36808 | 35 ft | 43 kts | 123° |
| 2026-05-03 20:24 | 56.48209 | -132.36370 | 34 ft | 40 kts | 121° |
| 2026-05-03 20:24 | 56.48061 | -132.35969 | 36 ft | 36 kts | 135° |
| 2026-05-03 20:24 | 56.48017 | -132.35847 | 36 ft | 2 kts | 59° |
| 2026-05-03 20:25 | 56.48033 | -132.35821 | 35 ft | 6 kts | 353° |
| 2026-05-03 20:25 | 56.48205 | -132.36284 | 35 ft | 99 kts | 304° |
| 2026-05-03 20:25 | 56.48696 | -132.37853 | 369 ft | 169 kts | 298° |
| 2026-05-03 20:25 | 56.49460 | -132.39518 | 1845 ft | 173 kts | 327° |
| 2026-05-03 20:26 | 56.50527 | -132.40557 | 3160 ft | 187 kts | 332° |
| 2026-05-03 20:26 | 56.51777 | -132.41737 | 3816 ft | 214 kts | 332° |
| 2026-05-03 20:26 | 56.53194 | -132.43075 | 4229 ft | 248 kts | 332° |
| 2026-05-03 20:26 | 56.54723 | -132.44527 | 5457 ft | 248 kts | 332° |
| 2026-05-03 20:27 | 56.56352 | -132.46085 | 5923 ft | 283 kts | 331° |
| 2026-05-03 20:27 | 56.58194 | -132.47863 | 6004 ft | 320 kts | 331° |
| 2026-05-03 20:27 | 56.60258 | -132.49867 | 6012 ft | 345 kts | 331° |
| 2026-05-03 20:27 | 56.62380 | -132.51936 | 5991 ft | 348 kts | 331° |
| 2026-05-03 20:28 | 56.64562 | -132.53908 | 6027 ft | 350 kts | 333° |
| 2026-05-03 20:28 | 56.66517 | -132.56477 | 5977 ft | 348 kts | 314° |
| 2026-05-03 20:28 | 56.68316 | -132.59337 | 5968 ft | 347 kts | 336° |
| 2026-05-03 20:28 | 56.70705 | -132.60122 | 6023 ft | 351 kts | 355° |
| 2026-05-03 20:29 | 56.73104 | -132.60442 | 5674 ft | 339 kts | 353° |
| 2026-05-03 20:29 | 56.75358 | -132.61334 | 4715 ft | 338 kts | 340° |
| 2026-05-03 20:29 | 56.77510 | -132.63050 | 3790 ft | 337 kts | 330° |
| 2026-05-03 20:29 | 56.79252 | -132.65835 | 2853 ft | 337 kts | 306° |
| 2026-05-03 20:30 | 56.80389 | -132.69397 | 2435 ft | 308 kts | 301° |
| 2026-05-03 20:30 | 56.81269 | -132.72678 | 2226 ft | 271 kts | 286° |
| 2026-05-03 20:30 | 56.81542 | -132.75820 | 2104 ft | 232 kts | 277° |
| 2026-05-03 20:30 | 56.81667 | -132.78522 | 1991 ft | 196 kts | 275° |
| 2026-05-03 20:31 | 56.81755 | -132.80800 | 1978 ft | 165 kts | 276° |
| 2026-05-03 20:31 | 56.81861 | -132.82802 | 1641 ft | 159 kts | 281° |
| 2026-05-03 20:31 | 56.81937 | -132.84725 | 1340 ft | 145 kts | 267° |
| 2026-05-03 20:31 | 56.81737 | -132.86519 | 970 ft | 143 kts | 254° |
| 2026-05-03 20:32 | 56.81392 | -132.88233 | 727 ft | 145 kts | 248° |
| 2026-05-03 20:32 | 56.81037 | -132.89930 | 560 ft | 143 kts | 250° |
| 2026-05-03 20:32 | 56.80724 | -132.91659 | 387 ft | 145 kts | 252° |
| 2026-05-03 20:32 | 56.80380 | -132.93427 | 154 ft | 147 kts | 250° |
| 2026-05-03 20:33 | 56.80048 | -132.95075 | 120 ft | 122 kts | 251° |
| 2026-05-03 20:33 | 56.79821 | -132.96131 | 120 ft | 63 kts | 256° |
| 2026-05-03 20:33 | 56.79889 | -132.96570 | 110 ft | 1 kts | 271° |
| 2026-05-03 20:33 | 56.79865 | -132.96588 | 110 ft | 11 kts | 178° |
| 2026-05-03 20:34 | 56.79854 | -132.96463 | 120 ft | 0 kts | 78° |
| 2026-05-03 20:34 | 56.80565 | -132.93304 | 117 ft | 0 kts | 71° |